Royal Engineer — WDF6370 — position and weather

sailwx.info

Track history (hours):
 
Tides and Currents Weather Stations Pressure Air Temp Water Temp Dewpoint Dewpoint Depression Visibility Wind Speed Wind Dir Waves Ship Positions

Royal Engineer

Owner: Royal Engineer, Yonges Island, SC. More information available from US FCC via Universal Licensing System and Coast Guard Vessel Documentation Center.

Last reported at 2018-Feb-17 21:45 UTC. Time now 2018-Feb-19 21:50 UTC.
Position N 35°05' W 076°32'.

Length 16 m; draft 2.5 m.

Type: Towing. MMSI: 367473540.

Date/timePositionNaut miles runAvg speedWind from/ knotsBaromVisibWave heightAir tempDewpointWater temp
2018-Feb-17 21:45N 35°05' W 076°32'2 4.8
2018-Feb-17 21:16N 35°03' W 076°34'1 4.6
2018-Feb-17 21:00N 35°03' W 076°36'3 4.8
2018-Feb-17 20:27N 35°01' W 076°38'2 4.7
2018-Feb-17 19:57N 34°60' W 076°41'2 3.8
2018-Feb-17 19:19N 34°57' W 076°41'2 4.4
2018-Feb-17 18:55N 34°56' W 076°39'2 4.1
2018-Feb-17 18:30N 34°55' W 076°40'2 3.1
2018-Feb-17 18:00N 34°53' W 076°41'2 3.6
2018-Feb-17 17:30N 34°52' W 076°41'2 4.3
2018-Feb-17 17:00N 34°49' W 076°41'2 4.5
2018-Feb-17 16:30N 34°47' W 076°41'2 4.0
2018-Feb-17 16:00N 34°45' W 076°40'2 3.7
2018-Feb-17 15:30N 34°44' W 076°42'1 1.4
2018-Feb-17 15:00N 34°43' W 076°42'0 0.2
2018-Feb-17 14:30N 34°43' W 076°41'1 1.4
2018-Feb-17 14:00N 34°43' W 076°42'0 0.2
2018-Feb-17 13:30N 34°43' W 076°42'0 0.0
2018-Feb-17 13:00N 34°43' W 076°42'0 0.5
2018-Feb-17 12:30N 34°43' W 076°42'0 0.0
2018-Feb-17 12:00N 34°43' W 076°42'0 0.0
2018-Feb-17 11:30N 34°43' W 076°42'0 0.7
2018-Feb-17 11:00N 34°43' W 076°42'0 0.4
2018-Feb-17 10:30N 34°43' W 076°42'0 0.0
2018-Feb-17 10:00N 34°43' W 076°42'0 0.0
2018-Feb-17 09:30N 34°43' W 076°42'0 0.0
2018-Feb-17 09:00N 34°43' W 076°42'0 0.0
2018-Feb-17 08:30N 34°43' W 076°42'0 0.0
2018-Feb-17 08:00N 34°43' W 076°42'0 0.0
2018-Feb-17 07:30N 34°43' W 076°42'0 0.0
2018-Feb-17 07:00N 34°43' W 076°42'0 0.0
2018-Feb-17 06:30N 34°43' W 076°42'0 0.0
2018-Feb-17 06:00N 34°43' W 076°42'0 0.0
2018-Feb-17 05:30N 34°43' W 076°42'0 0.1
2018-Feb-17 05:00N 34°43' W 076°42'0 0.6
2018-Feb-17 04:30N 34°43' W 076°42'0 0.0
2018-Feb-17 04:00N 34°43' W 076°42'0 0.0
2018-Feb-17 03:30N 34°43' W 076°42'0 0.6
2018-Feb-17 03:00N 34°43' W 076°42'0 0.2
2018-Feb-17 02:30N 34°43' W 076°42'0 0.0
2018-Feb-17 02:00N 34°43' W 076°42'0 0.0
2018-Feb-17 01:30N 34°43' W 076°42'0 0.0
2018-Feb-17 01:00N 34°43' W 076°42'0 0.6
2018-Feb-17 00:30N 34°43' W 076°42'0 0.0
2018-Feb-17 00:00N 34°43' W 076°42'0 0.0
2018-Feb-16 23:30N 34°43' W 076°42'0 0.0
2018-Feb-16 23:00N 34°43' W 076°42'0 0.0
2018-Feb-16 22:30N 34°43' W 076°42'0 0.0
2018-Feb-16 22:00N 34°43' W 076°42'0 0.0
2018-Feb-16 21:30N 34°43' W 076°42'0 0.0
2018-Feb-16 21:00N 34°43' W 076°42'0 0.0
2018-Feb-16 20:30N 34°43' W 076°42'0 0.6
2018-Feb-16 20:00N 34°43' W 076°42'0 0.1
2018-Feb-16 19:30N 34°43' W 076°42'1 1.3
2018-Feb-16 19:00N 34°43' W 076°42'0 0.0
2018-Feb-16 18:30N 34°43' W 076°42'0 0.1
2018-Feb-16 18:00N 34°44' W 076°42'1 1.3
2018-Feb-16 17:30N 34°43' W 076°42'0 0.1
2018-Feb-16 17:00N 34°43' W 076°42'0 0.7
2018-Feb-16 16:30N 34°43' W 076°42'0 0.0
2018-Feb-16 16:00N 34°43' W 076°42'0 0.0
2018-Feb-16 15:30N 34°43' W 076°42'0 0.0
2018-Feb-16 15:00N 34°43' W 076°42'0 0.0
2018-Feb-16 14:30N 34°43' W 076°42'0 0.0
2018-Feb-16 14:00N 34°43' W 076°42'0 0.0
2018-Feb-16 13:30N 34°43' W 076°42'0 0.0
2018-Feb-16 13:00N 34°43' W 076°42'0 0.0
2018-Feb-16 12:30N 34°43' W 076°42'0 0.0
2018-Feb-16 12:00N 34°43' W 076°42'0 0.5
2018-Feb-16 11:30N 34°43' W 076°42'0 0.3
2018-Feb-16 11:00N 34°43' W 076°42'0 0.0
2018-Feb-16 10:30N 34°43' W 076°42'0 0.0
2018-Feb-16 10:00N 34°43' W 076°42'0 0.0
2018-Feb-16 09:30N 34°43' W 076°42'0 0.0
2018-Feb-16 09:00N 34°43' W 076°42'0 0.0
2018-Feb-16 08:30N 34°43' W 076°42'0 0.0
2018-Feb-16 08:00N 34°43' W 076°42'0 0.6
2018-Feb-16 07:30N 34°43' W 076°42'0 0.0
2018-Feb-16 07:00N 34°43' W 076°42'0 0.0
2018-Feb-16 06:30N 34°43' W 076°42'0 0.0
2018-Feb-16 06:00N 34°43' W 076°42'0 0.0
2018-Feb-16 05:30N 34°43' W 076°42'0 0.0
2018-Feb-16 05:00N 34°43' W 076°42'0 0.0
2018-Feb-16 04:30N 34°43' W 076°42'0 0.0
2018-Feb-16 04:00N 34°43' W 076°42'0 0.7
2018-Feb-16 03:30N 34°43' W 076°41'1 1.2
2018-Feb-16 03:00N 34°43' W 076°42'0 0.1
2018-Feb-16 02:30N 34°43' W 076°42'0 0.6
2018-Feb-16 02:00N 34°43' W 076°42'0 0.0
2018-Feb-16 01:30N 34°43' W 076°42'0 0.0
2018-Feb-16 01:00N 34°43' W 076°42'0 0.0
2018-Feb-16 00:30N 34°43' W 076°42'0 0.1
2018-Feb-16 00:00N 34°43' W 076°42'0 0.0
2018-Feb-15 23:30N 34°43' W 076°42'0 0.0
2018-Feb-15 23:00N 34°43' W 076°42'0 0.0
2018-Feb-15 22:30N 34°43' W 076°42'0 0.0
2018-Feb-15 22:00N 34°43' W 076°42'0 0.0
2018-Feb-15 21:30N 34°43' W 076°42'0 0.0
2018-Feb-15 21:00N 34°43' W 076°42'0 0.0
2018-Feb-15 20:30N 34°43' W 076°42'0 0.0
2018-Feb-15 20:00N 34°43' W 076°42'0 0.0
2018-Feb-15 19:30N 34°43' W 076°42'0 0.0
2018-Feb-15 19:00N 34°43' W 076°42'0 0.6
2018-Feb-15 18:30N 34°43' W 076°42'0 0.0
2018-Feb-15 18:00N 34°43' W 076°42'0 0.1
2018-Feb-15 17:30N 34°43' W 076°42'0 0.0
2018-Feb-15 17:00N 34°43' W 076°42'0 0.0
2018-Feb-15 16:30N 34°43' W 076°42'1 1.2
2018-Feb-15 16:00N 34°43' W 076°41'0 0.2
2018-Feb-15 15:30N 34°43' W 076°42'0 0.2
2018-Feb-15 15:00N 34°43' W 076°41'0 0.8
2018-Feb-15 14:30N 34°43' W 076°42'0 0.5
2018-Feb-15 14:00N 34°43' W 076°42'0 0.2
2018-Feb-15 13:30N 34°43' W 076°42'1 1.2
2018-Feb-15 13:00N 34°43' W 076°41'0 0.7
2018-Feb-15 12:30N 34°43' W 076°42'0 0.1
2018-Feb-15 11:59N 34°43' W 076°42'0 0.0
2018-Feb-15 11:30N 34°43' W 076°42'0 0.0
2018-Feb-15 11:00N 34°43' W 076°42'0 0.0
2018-Feb-15 10:30N 34°43' W 076°42'0 0.0
2018-Feb-15 10:00N 34°43' W 076°42'0 0.0
2018-Feb-15 09:30N 34°43' W 076°42'0 0.0
2018-Feb-15 09:00N 34°43' W 076°42'0 0.0
2018-Feb-15 08:30N 34°43' W 076°42'0 0.0
2018-Feb-15 08:00N 34°43' W 076°42'0 0.0
2018-Feb-15 07:30N 34°43' W 076°42'0 0.0
2018-Feb-15 07:00N 34°43' W 076°42'0 0.0
2018-Feb-15 06:30N 34°43' W 076°42'0 0.1
2018-Feb-15 06:00N 34°43' W 076°42'0 0.2
2018-Feb-15 05:30N 34°43' W 076°42'0 0.0
2018-Feb-15 05:00N 34°43' W 076°42'0 0.0
2018-Feb-15 04:30N 34°43' W 076°42'0 0.0
2018-Feb-15 03:59N 34°43' W 076°42'0 0.0
2018-Feb-15 03:30N 34°43' W 076°42'0 0.0
2018-Feb-15 03:00N 34°43' W 076°42'0 0.0
2018-Feb-15 02:30N 34°43' W 076°42'0 0.1
2018-Feb-15 02:00N 34°43' W 076°42'0 0.2
2018-Feb-15 01:30N 34°43' W 076°42'0 0.1
2018-Feb-15 01:00N 34°43' W 076°42'0 0.2
2018-Feb-15 00:30N 34°43' W 076°42'0 0.0
2018-Feb-15 00:00N 34°43' W 076°42'0 0.0
2018-Feb-14 23:30N 34°43' W 076°42'0 0.0
2018-Feb-14 23:00N 34°43' W 076°42'0 0.0
2018-Feb-14 22:30N 34°43' W 076°42'0 0.3
2018-Feb-14 22:00N 34°43' W 076°42'0 0.3
2018-Feb-14 21:30N 34°43' W 076°42'0 0.6
2018-Feb-14 21:00N 34°43' W 076°41'0 0.1
2018-Feb-14 20:30N 34°43' W 076°41'0 0.7
2018-Feb-14 20:00N 34°43' W 076°42'0 0.8
2018-Feb-14 19:30N 34°43' W 076°42'0 0.0
2018-Feb-14 18:59N 34°43' W 076°42'0 0.0
2018-Feb-14 18:30N 34°43' W 076°42'0 0.0
2018-Feb-14 18:00N 34°43' W 076°42'0 0.0
2018-Feb-14 17:30N 34°43' W 076°42'0 0.0
2018-Feb-14 17:00N 34°43' W 076°42'0 0.0
2018-Feb-14 16:30N 34°43' W 076°42'0 0.0
2018-Feb-14 16:00N 34°43' W 076°42'0 0.0
2018-Feb-14 15:30N 34°43' W 076°42'0 0.0
2018-Feb-14 15:00N 34°43' W 076°42'0 0.0
2018-Feb-14 14:30N 34°43' W 076°42'0 0.0
2018-Feb-14 14:00N 34°43' W 076°42'0 0.0
2018-Feb-14 13:30N 34°43' W 076°42'0 0.0
2018-Feb-14 13:00N 34°43' W 076°42'0 0.0
2018-Feb-14 12:30N 34°43' W 076°42'0 0.0
2018-Feb-14 12:00N 34°43' W 076°42'0 0.0
2018-Feb-14 11:30N 34°43' W 076°42'0 0.0
2018-Feb-14 11:00N 34°43' W 076°42'0 0.0
2018-Feb-14 10:30N 34°43' W 076°42'0 0.0
2018-Feb-14 10:00N 34°43' W 076°42'0 0.0
2018-Feb-14 09:30N 34°43' W 076°42'0 0.0
2018-Feb-14 09:00N 34°43' W 076°42'0 0.0
2018-Feb-14 08:30N 34°43' W 076°42'0 0.0
2018-Feb-14 08:00N 34°43' W 076°42'0 0.0
2018-Feb-14 07:30N 34°43' W 076°42'0 0.0
2018-Feb-14 07:00N 34°43' W 076°42'0 0.0
2018-Feb-14 06:30N 34°43' W 076°42'0 0.0
2018-Feb-14 06:00N 34°43' W 076°42'0 0.0
2018-Feb-14 05:30N 34°43' W 076°42'0 0.0
2018-Feb-14 05:00N 34°43' W 076°42'0 0.0
2018-Feb-14 04:30N 34°43' W 076°42'0 0.0
2018-Feb-14 04:00N 34°43' W 076°42'0 0.0
2018-Feb-14 03:30N 34°43' W 076°42'0 0.0
2018-Feb-14 03:00N 34°43' W 076°42'0 0.0
2018-Feb-14 02:30N 34°43' W 076°42'0 0.0
2018-Feb-14 02:00N 34°43' W 076°42'0 0.0
2018-Feb-14 01:30N 34°43' W 076°42'0 0.0
2018-Feb-14 01:00N 34°43' W 076°42'0 0.0
2018-Feb-14 00:30N 34°43' W 076°42'0 0.0
2018-Feb-14 00:00N 34°43' W 076°42'0 0.0
2018-Feb-13 23:30N 34°43' W 076°42'0 0.0
2018-Feb-13 23:00N 34°43' W 076°42'0 0.4
2018-Feb-13 22:30N 34°43' W 076°42'0 0.0
2018-Feb-13 22:00N 34°43' W 076°42'0 0.0
2018-Feb-13 21:30N 34°43' W 076°42'0 0.0
2018-Feb-13 21:00N 34°43' W 076°42'0 0.0
2018-Feb-13 20:30N 34°43' W 076°42'0 0.0
2018-Feb-13 20:00N 34°43' W 076°42'0 0.0
2018-Feb-13 19:30N 34°43' W 076°42'0 0.0
2018-Feb-13 19:00N 34°43' W 076°42'0 0.0
2018-Feb-13 18:30N 34°43' W 076°42'0 0.0
2018-Feb-13 18:00N 34°43' W 076°42'0 0.0
2018-Feb-13 17:30N 34°43' W 076°42'0 0.0
2018-Feb-13 17:00N 34°43' W 076°42'0 0.0
2018-Feb-13 16:30N 34°43' W 076°42'0 0.0
2018-Feb-13 16:00N 34°43' W 076°42'0 0.0
2018-Feb-13 15:30N 34°43' W 076°42'0 0.0
2018-Feb-13 15:00N 34°43' W 076°42'0 0.7
2018-Feb-13 14:30N 34°43' W 076°42'0 0.0
2018-Feb-13 14:00N 34°43' W 076°42'0 0.0
2018-Feb-13 13:30N 34°43' W 076°42'0 0.0
2018-Feb-13 13:00N 34°43' W 076°42'0 0.2
2018-Feb-13 12:30N 34°43' W 076°42'0 0.3
2018-Feb-13 12:00N 34°43' W 076°42'0 0.0
2018-Feb-13 11:30N 34°43' W 076°42'0 0.0
2018-Feb-13 11:00N 34°43' W 076°42'0 0.0
2018-Feb-13 10:30N 34°43' W 076°42'0 0.0
2018-Feb-13 10:00N 34°43' W 076°42'0 0.0
2018-Feb-13 09:30N 34°43' W 076°42'0 0.0
2018-Feb-13 09:00N 34°43' W 076°42'0 0.0
2018-Feb-13 08:30N 34°43' W 076°42'0 0.0
2018-Feb-13 08:00N 34°43' W 076°42'0 0.0
2018-Feb-13 07:30N 34°43' W 076°42'0 0.0
2018-Feb-13 07:00N 34°43' W 076°42'0 0.0
2018-Feb-13 06:30N 34°43' W 076°42'0 0.0
2018-Feb-13 06:00N 34°43' W 076°42'0 0.0
2018-Feb-13 05:30N 34°43' W 076°42'0 0.0
2018-Feb-13 05:00N 34°43' W 076°42'0 0.0
2018-Feb-13 04:30N 34°43' W 076°42'0 0.0
2018-Feb-13 04:00N 34°43' W 076°42'0 0.0
2018-Feb-13 03:30N 34°43' W 076°42'0 0.0
2018-Feb-13 03:00N 34°43' W 076°42'0 0.0
2018-Feb-13 02:30N 34°43' W 076°42'0 0.0
2018-Feb-13 02:00N 34°43' W 076°42'0 0.0
2018-Feb-13 01:30N 34°43' W 076°42'0 0.0
2018-Feb-13 01:00N 34°43' W 076°42'0 0.0
2018-Feb-13 00:30N 34°43' W 076°42'0 0.0
2018-Feb-13 00:00N 34°43' W 076°42'0 1.0
2018-Feb-12 23:30N 34°43' W 076°41'0 0.4
2018-Feb-12 23:00N 34°43' W 076°42'0 0.0
2018-Feb-12 22:30N 34°43' W 076°42'0 0.0
2018-Feb-12 22:00N 34°43' W 076°42'0 0.0
2018-Feb-12 21:30N 34°43' W 076°42'0 0.0
2018-Feb-12 21:00N 34°43' W 076°42'0 0.0
2018-Feb-12 20:30N 34°43' W 076°42'0 0.0
2018-Feb-12 20:00N 34°43' W 076°42'0 0.0
2018-Feb-12 19:30N 34°43' W 076°42'0 0.0
2018-Feb-12 19:00N 34°43' W 076°42'0 0.7
2018-Feb-12 18:30N 34°43' W 076°42'0 0.0
2018-Feb-12 18:00N 34°43' W 076°42'0 0.0
2018-Feb-12 17:29N 34°43' W 076°42'0 0.0
2018-Feb-12 17:00N 34°43' W 076°42'0 0.0
2018-Feb-12 16:30N 34°43' W 076°42'0 0.0
2018-Feb-12 16:00N 34°43' W 076°42'0 0.0
2018-Feb-12 15:30N 34°43' W 076°42'0 0.0
2018-Feb-12 15:00N 34°43' W 076°42'0 0.0
2018-Feb-12 14:30N 34°43' W 076°42'0 0.0
2018-Feb-12 14:00N 34°43' W 076°42'0 0.0
2018-Feb-12 13:30N 34°43' W 076°42'0 0.0
2018-Feb-12 13:00N 34°43' W 076°42'0 0.0
2018-Feb-12 12:30N 34°43' W 076°42'0 0.0
2018-Feb-12 12:00N 34°43' W 076°42'0 0.0
2018-Feb-12 11:30N 34°43' W 076°42'0 0.0
2018-Feb-12 11:00N 34°43' W 076°42'0 0.0
2018-Feb-12 10:30N 34°43' W 076°42'0 0.0
2018-Feb-12 10:00N 34°43' W 076°42'0 0.0
2018-Feb-12 09:30N 34°43' W 076°42'0 0.0
2018-Feb-12 09:00N 34°43' W 076°42'0 0.0
2018-Feb-12 08:30N 34°43' W 076°42'0 0.0
2018-Feb-12 08:00N 34°43' W 076°42'0 0.0
2018-Feb-12 07:30N 34°43' W 076°42'0 0.0
2018-Feb-12 07:00N 34°43' W 076°42'0 0.0
2018-Feb-12 06:30N 34°43' W 076°42'0 0.0
2018-Feb-12 06:00N 34°43' W 076°42'0 0.0
2018-Feb-12 05:30N 34°43' W 076°42'0 0.0
2018-Feb-12 05:00N 34°43' W 076°42'0 0.0
2018-Feb-12 04:30N 34°43' W 076°42'0 0.0
2018-Feb-12 04:00N 34°43' W 076°42'0 0.0
2018-Feb-12 03:30N 34°43' W 076°42'0 0.0
2018-Feb-12 03:00N 34°43' W 076°42'0 0.0
2018-Feb-12 02:30N 34°43' W 076°42'0 0.0
2018-Feb-12 02:00N 34°43' W 076°42'0 0.0
2018-Feb-12 01:30N 34°43' W 076°42'0 0.0
2018-Feb-12 01:00N 34°43' W 076°42'0 0.0
2018-Feb-12 00:30N 34°43' W 076°42'0 0.0
2018-Feb-12 00:00N 34°43' W 076°42'0 0.0
2018-Feb-11 23:30N 34°43' W 076°42'0 0.0
2018-Feb-11 23:00N 34°43' W 076°42'0 0.0
2018-Feb-11 22:30N 34°43' W 076°42'0 0.0
2018-Feb-11 22:00N 34°43' W 076°42'0 0.0
2018-Feb-11 21:30N 34°43' W 076°42'0 0.0
2018-Feb-11 21:00N 34°43' W 076°42'0 0.0
2018-Feb-11 20:30N 34°43' W 076°42'0 0.0
2018-Feb-11 20:00N 34°43' W 076°42'0 0.0
2018-Feb-11 19:30N 34°43' W 076°42'0 0.0
2018-Feb-11 19:00N 34°43' W 076°42'0 0.0
2018-Feb-11 18:30N 34°43' W 076°42'0 0.0
2018-Feb-11 18:00N 34°43' W 076°42'0 0.8
2018-Feb-11 17:30N 34°43' W 076°42'0 0.2
2018-Feb-11 17:00N 34°43' W 076°42'0 0.8
2018-Feb-11 16:30N 34°43' W 076°42'0 0.0
2018-Feb-11 16:00N 34°43' W 076°42'0 0.0
2018-Feb-11 15:30N 34°43' W 076°42'0 0.0
2018-Feb-11 14:59N 34°43' W 076°42'0 0.0
2018-Feb-11 14:30N 34°43' W 076°42'0 0.0
2018-Feb-11 14:00N 34°43' W 076°42'0 0.0
2018-Feb-11 13:30N 34°43' W 076°42'0 0.9
2018-Feb-11 13:00N 34°43' W 076°42'3 6.4
2018-Feb-11 12:30N 34°46' W 076°41'3 5.8
2018-Feb-11 12:00N 34°49' W 076°41'3 5.3
2018-Feb-11 11:30N 34°52' W 076°41'2 4.8
2018-Feb-11 11:00N 34°54' W 076°41'3 5.2
2018-Feb-11 10:30N 34°56' W 076°39'3 5.7
2018-Feb-11 10:00N 34°59' W 076°41'  
2018-Feb-08 21:30N 34°51' W 076°41'5 5.3
2018-Feb-08 20:30N 34°46' W 076°41'2 4.6
2018-Feb-08 20:00N 34°44' W 076°42'1 1.8
2018-Feb-08 19:30N 34°43' W 076°42'0 0.2
2018-Feb-08 19:00N 34°43' W 076°42'0 0.0
2018-Feb-08 17:30N 34°43' W 076°42'1 1.1
2018-Feb-08 17:00N 34°43' W 076°42'0 0.1
2018-Feb-08 16:30N 34°43' W 076°42'0 0.6
2018-Feb-08 16:00N 34°43' W 076°42'0 0.0
2018-Feb-08 15:00N 34°43' W 076°42'0 0.0
2018-Feb-08 14:30N 34°43' W 076°42'0 0.0
2018-Feb-08 14:00N 34°43' W 076°42'0 0.0
2018-Feb-08 13:30N 34°43' W 076°42'1 1.1
2018-Feb-08 13:00N 34°44' W 076°42'2 4.8
2018-Feb-08 12:30N 34°46' W 076°41'3 6.3
2018-Feb-08 12:00N 34°49' W 076°41'3 6.8
2018-Feb-08 11:30N 34°52' W 076°41'5 5.0
2018-Feb-08 10:30N 34°57' W 076°40'  
Track history (hours):
 
Tides and Currents Weather Stations Pressure Air Temp Water Temp Dewpoint Dewpoint Depression Visibility Wind Speed Wind Dir Waves Ship Positions

Royal Engineer

Owner: Royal Engineer, Yonges Island, SC. More information available from US FCC via Universal Licensing System and Coast Guard Vessel Documentation Center.

Last reported at 2018-Feb-17 21:45 UTC. Time now 2018-Feb-19 21:50 UTC.
Position N 35°05' W 076°32'.

Length 16 m; draft 2.5 m.

Type: Towing. MMSI: 367473540.

Date/timePositionNaut miles runAvg speedWind from/ knotsBaromVisibWave heightAir tempDewpointWater temp
2018-Feb-17 21:45N 35°05' W 076°32'2 4.8
2018-Feb-17 21:16N 35°03' W 076°34'1 4.6
2018-Feb-17 21:00N 35°03' W 076°36'3 4.8
2018-Feb-17 20:27N 35°01' W 076°38'2 4.7
2018-Feb-17 19:57N 34°60' W 076°41'2 3.8
2018-Feb-17 19:19N 34°57' W 076°41'2 4.4
2018-Feb-17 18:55N 34°56' W 076°39'2 4.1
2018-Feb-17 18:30N 34°55' W 076°40'2 3.1
2018-Feb-17 18:00N 34°53' W 076°41'2 3.6
2018-Feb-17 17:30N 34°52' W 076°41'2 4.3
2018-Feb-17 17:00N 34°49' W 076°41'2 4.5
2018-Feb-17 16:30N 34°47' W 076°41'2 4.0
2018-Feb-17 16:00N 34°45' W 076°40'2 3.7
2018-Feb-17 15:30N 34°44' W 076°42'1 1.4
2018-Feb-17 15:00N 34°43' W 076°42'0 0.2
2018-Feb-17 14:30N 34°43' W 076°41'1 1.4
2018-Feb-17 14:00N 34°43' W 076°42'0 0.2
2018-Feb-17 13:30N 34°43' W 076°42'0 0.0
2018-Feb-17 13:00N 34°43' W 076°42'0 0.5
2018-Feb-17 12:30N 34°43' W 076°42'0 0.0
2018-Feb-17 12:00N 34°43' W 076°42'0 0.0
2018-Feb-17 11:30N 34°43' W 076°42'0 0.7
2018-Feb-17 11:00N 34°43' W 076°42'0 0.4
2018-Feb-17 10:30N 34°43' W 076°42'0 0.0
2018-Feb-17 10:00N 34°43' W 076°42'0 0.0
2018-Feb-17 09:30N 34°43' W 076°42'0 0.0
2018-Feb-17 09:00N 34°43' W 076°42'0 0.0
2018-Feb-17 08:30N 34°43' W 076°42'0 0.0
2018-Feb-17 08:00N 34°43' W 076°42'0 0.0
2018-Feb-17 07:30N 34°43' W 076°42'0 0.0
2018-Feb-17 07:00N 34°43' W 076°42'0 0.0
2018-Feb-17 06:30N 34°43' W 076°42'0 0.0
2018-Feb-17 06:00N 34°43' W 076°42'0 0.0
2018-Feb-17 05:30N 34°43' W 076°42'0 0.1
2018-Feb-17 05:00N 34°43' W 076°42'0 0.6
2018-Feb-17 04:30N 34°43' W 076°42'0 0.0
2018-Feb-17 04:00N 34°43' W 076°42'0 0.0
2018-Feb-17 03:30N 34°43' W 076°42'0 0.6
2018-Feb-17 03:00N 34°43' W 076°42'0 0.2
2018-Feb-17 02:30N 34°43' W 076°42'0 0.0
2018-Feb-17 02:00N 34°43' W 076°42'0 0.0
2018-Feb-17 01:30N 34°43' W 076°42'0 0.0
2018-Feb-17 01:00N 34°43' W 076°42'0 0.6
2018-Feb-17 00:30N 34°43' W 076°42'0 0.0
2018-Feb-17 00:00N 34°43' W 076°42'0 0.0
2018-Feb-16 23:30N 34°43' W 076°42'0 0.0
2018-Feb-16 23:00N 34°43' W 076°42'0 0.0
2018-Feb-16 22:30N 34°43' W 076°42'0 0.0
2018-Feb-16 22:00N 34°43' W 076°42'0 0.0
2018-Feb-16 21:30N 34°43' W 076°42'0 0.0
2018-Feb-16 21:00N 34°43' W 076°42'0 0.0
2018-Feb-16 20:30N 34°43' W 076°42'0 0.6
2018-Feb-16 20:00N 34°43' W 076°42'0 0.1
2018-Feb-16 19:30N 34°43' W 076°42'1 1.3
2018-Feb-16 19:00N 34°43' W 076°42'0 0.0
2018-Feb-16 18:30N 34°43' W 076°42'0 0.1
2018-Feb-16 18:00N 34°44' W 076°42'1 1.3
2018-Feb-16 17:30N 34°43' W 076°42'0 0.1
2018-Feb-16 17:00N 34°43' W 076°42'0 0.7
2018-Feb-16 16:30N 34°43' W 076°42'0 0.0
2018-Feb-16 16:00N 34°43' W 076°42'0 0.0
2018-Feb-16 15:30N 34°43' W 076°42'0 0.0
2018-Feb-16 15:00N 34°43' W 076°42'0 0.0
2018-Feb-16 14:30N 34°43' W 076°42'0 0.0
2018-Feb-16 14:00N 34°43' W 076°42'0 0.0
2018-Feb-16 13:30N 34°43' W 076°42'0 0.0
2018-Feb-16 13:00N 34°43' W 076°42'0 0.0
2018-Feb-16 12:30N 34°43' W 076°42'0 0.0
2018-Feb-16 12:00N 34°43' W 076°42'0 0.5
2018-Feb-16 11:30N 34°43' W 076°42'0 0.3
2018-Feb-16 11:00N 34°43' W 076°42'0 0.0
2018-Feb-16 10:30N 34°43' W 076°42'0 0.0
2018-Feb-16 10:00N 34°43' W 076°42'0 0.0
2018-Feb-16 09:30N 34°43' W 076°42'0 0.0
2018-Feb-16 09:00N 34°43' W 076°42'0 0.0
2018-Feb-16 08:30N 34°43' W 076°42'0 0.0
2018-Feb-16 08:00N 34°43' W 076°42'0 0.6
2018-Feb-16 07:30N 34°43' W 076°42'0 0.0
2018-Feb-16 07:00N 34°43' W 076°42'0 0.0
2018-Feb-16 06:30N 34°43' W 076°42'0 0.0
2018-Feb-16 06:00N 34°43' W 076°42'0 0.0
2018-Feb-16 05:30N 34°43' W 076°42'0 0.0
2018-Feb-16 05:00N 34°43' W 076°42'0 0.0
2018-Feb-16 04:30N 34°43' W 076°42'0 0.0
2018-Feb-16 04:00N 34°43' W 076°42'0 0.7
2018-Feb-16 03:30N 34°43' W 076°41'1 1.2
2018-Feb-16 03:00N 34°43' W 076°42'0 0.1
2018-Feb-16 02:30N 34°43' W 076°42'0 0.6
2018-Feb-16 02:00N 34°43' W 076°42'0 0.0
2018-Feb-16 01:30N 34°43' W 076°42'0 0.0
2018-Feb-16 01:00N 34°43' W 076°42'0 0.0
2018-Feb-16 00:30N 34°43' W 076°42'0 0.1
2018-Feb-16 00:00N 34°43' W 076°42'0 0.0
2018-Feb-15 23:30N 34°43' W 076°42'0 0.0
2018-Feb-15 23:00N 34°43' W 076°42'0 0.0
2018-Feb-15 22:30N 34°43' W 076°42'0 0.0
2018-Feb-15 22:00N 34°43' W 076°42'0 0.0
2018-Feb-15 21:30N 34°43' W 076°42'0 0.0
2018-Feb-15 21:00N 34°43' W 076°42'0 0.0
2018-Feb-15 20:30N 34°43' W 076°42'0 0.0
2018-Feb-15 20:00N 34°43' W 076°42'0 0.0
2018-Feb-15 19:30N 34°43' W 076°42'0 0.0
2018-Feb-15 19:00N 34°43' W 076°42'0 0.6
2018-Feb-15 18:30N 34°43' W 076°42'0 0.0
2018-Feb-15 18:00N 34°43' W 076°42'0 0.1
2018-Feb-15 17:30N 34°43' W 076°42'0 0.0
2018-Feb-15 17:00N 34°43' W 076°42'0 0.0
2018-Feb-15 16:30N 34°43' W 076°42'1 1.2
2018-Feb-15 16:00N 34°43' W 076°41'0 0.2
2018-Feb-15 15:30N 34°43' W 076°42'0 0.2
2018-Feb-15 15:00N 34°43' W 076°41'0 0.8
2018-Feb-15 14:30N 34°43' W 076°42'0 0.5
2018-Feb-15 14:00N 34°43' W 076°42'0 0.2
2018-Feb-15 13:30N 34°43' W 076°42'1 1.2
2018-Feb-15 13:00N 34°43' W 076°41'0 0.7
2018-Feb-15 12:30N 34°43' W 076°42'0 0.1
2018-Feb-15 11:59N 34°43' W 076°42'0 0.0
2018-Feb-15 11:30N 34°43' W 076°42'0 0.0
2018-Feb-15 11:00N 34°43' W 076°42'0 0.0
2018-Feb-15 10:30N 34°43' W 076°42'0 0.0
2018-Feb-15 10:00N 34°43' W 076°42'0 0.0
2018-Feb-15 09:30N 34°43' W 076°42'0 0.0
2018-Feb-15 09:00N 34°43' W 076°42'0 0.0
2018-Feb-15 08:30N 34°43' W 076°42'0 0.0
2018-Feb-15 08:00N 34°43' W 076°42'0 0.0
2018-Feb-15 07:30N 34°43' W 076°42'0 0.0
2018-Feb-15 07:00N 34°43' W 076°42'0 0.0
2018-Feb-15 06:30N 34°43' W 076°42'0 0.1
2018-Feb-15 06:00N 34°43' W 076°42'0 0.2
2018-Feb-15 05:30N 34°43' W 076°42'0 0.0
2018-Feb-15 05:00N 34°43' W 076°42'0 0.0
2018-Feb-15 04:30N 34°43' W 076°42'0 0.0
2018-Feb-15 03:59N 34°43' W 076°42'0 0.0
2018-Feb-15 03:30N 34°43' W 076°42'0 0.0
2018-Feb-15 03:00N 34°43' W 076°42'0 0.0
2018-Feb-15 02:30N 34°43' W 076°42'0 0.1
2018-Feb-15 02:00N 34°43' W 076°42'0 0.2
2018-Feb-15 01:30N 34°43' W 076°42'0 0.1
2018-Feb-15 01:00N 34°43' W 076°42'0 0.2
2018-Feb-15 00:30N 34°43' W 076°42'0 0.0
2018-Feb-15 00:00N 34°43' W 076°42'0 0.0
2018-Feb-14 23:30N 34°43' W 076°42'0 0.0
2018-Feb-14 23:00N 34°43' W 076°42'0 0.0
2018-Feb-14 22:30N 34°43' W 076°42'0 0.3
2018-Feb-14 22:00N 34°43' W 076°42'0 0.3
2018-Feb-14 21:30N 34°43' W 076°42'0 0.6
2018-Feb-14 21:00N 34°43' W 076°41'0 0.1
2018-Feb-14 20:30N 34°43' W 076°41'0 0.7
2018-Feb-14 20:00N 34°43' W 076°42'0 0.8
2018-Feb-14 19:30N 34°43' W 076°42'0 0.0
2018-Feb-14 18:59N 34°43' W 076°42'0 0.0
2018-Feb-14 18:30N 34°43' W 076°42'0 0.0
2018-Feb-14 18:00N 34°43' W 076°42'0 0.0
2018-Feb-14 17:30N 34°43' W 076°42'0 0.0
2018-Feb-14 17:00N 34°43' W 076°42'0 0.0
2018-Feb-14 16:30N 34°43' W 076°42'0 0.0
2018-Feb-14 16:00N 34°43' W 076°42'0 0.0
2018-Feb-14 15:30N 34°43' W 076°42'0 0.0
2018-Feb-14 15:00N 34°43' W 076°42'0 0.0
2018-Feb-14 14:30N 34°43' W 076°42'0 0.0
2018-Feb-14 14:00N 34°43' W 076°42'0 0.0
2018-Feb-14 13:30N 34°43' W 076°42'0 0.0
2018-Feb-14 13:00N 34°43' W 076°42'0 0.0
2018-Feb-14 12:30N 34°43' W 076°42'0 0.0
2018-Feb-14 12:00N 34°43' W 076°42'0 0.0
2018-Feb-14 11:30N 34°43' W 076°42'0 0.0
2018-Feb-14 11:00N 34°43' W 076°42'0 0.0
2018-Feb-14 10:30N 34°43' W 076°42'0 0.0
2018-Feb-14 10:00N 34°43' W 076°42'0 0.0
2018-Feb-14 09:30N 34°43' W 076°42'0 0.0
2018-Feb-14 09:00N 34°43' W 076°42'0 0.0
2018-Feb-14 08:30N 34°43' W 076°42'0 0.0
2018-Feb-14 08:00N 34°43' W 076°42'0 0.0
2018-Feb-14 07:30N 34°43' W 076°42'0 0.0
2018-Feb-14 07:00N 34°43' W 076°42'0 0.0
2018-Feb-14 06:30N 34°43' W 076°42'0 0.0
2018-Feb-14 06:00N 34°43' W 076°42'0 0.0
2018-Feb-14 05:30N 34°43' W 076°42'0 0.0
2018-Feb-14 05:00N 34°43' W 076°42'0 0.0
2018-Feb-14 04:30N 34°43' W 076°42'0 0.0
2018-Feb-14 04:00N 34°43' W 076°42'0 0.0
2018-Feb-14 03:30N 34°43' W 076°42'0 0.0
2018-Feb-14 03:00N 34°43' W 076°42'0 0.0
2018-Feb-14 02:30N 34°43' W 076°42'0 0.0
2018-Feb-14 02:00N 34°43' W 076°42'0 0.0
2018-Feb-14 01:30N 34°43' W 076°42'0 0.0
2018-Feb-14 01:00N 34°43' W 076°42'0 0.0
2018-Feb-14 00:30N 34°43' W 076°42'0 0.0
2018-Feb-14 00:00N 34°43' W 076°42'0 0.0
2018-Feb-13 23:30N 34°43' W 076°42'0 0.0
2018-Feb-13 23:00N 34°43' W 076°42'0 0.4
2018-Feb-13 22:30N 34°43' W 076°42'0 0.0
2018-Feb-13 22:00N 34°43' W 076°42'0 0.0
2018-Feb-13 21:30N 34°43' W 076°42'0 0.0
2018-Feb-13 21:00N 34°43' W 076°42'0 0.0
2018-Feb-13 20:30N 34°43' W 076°42'0 0.0
2018-Feb-13 20:00N 34°43' W 076°42'0 0.0
2018-Feb-13 19:30N 34°43' W 076°42'0 0.0
2018-Feb-13 19:00N 34°43' W 076°42'0 0.0
2018-Feb-13 18:30N 34°43' W 076°42'0 0.0
2018-Feb-13 18:00N 34°43' W 076°42'0 0.0
2018-Feb-13 17:30N 34°43' W 076°42'0 0.0
2018-Feb-13 17:00N 34°43' W 076°42'0 0.0
2018-Feb-13 16:30N 34°43' W 076°42'0 0.0
2018-Feb-13 16:00N 34°43' W 076°42'0 0.0
2018-Feb-13 15:30N 34°43' W 076°42'0 0.0
2018-Feb-13 15:00N 34°43' W 076°42'0 0.7
2018-Feb-13 14:30N 34°43' W 076°42'0 0.0
2018-Feb-13 14:00N 34°43' W 076°42'0 0.0
2018-Feb-13 13:30N 34°43' W 076°42'0 0.0
2018-Feb-13 13:00N 34°43' W 076°42'0 0.2
2018-Feb-13 12:30N 34°43' W 076°42'0 0.3
2018-Feb-13 12:00N 34°43' W 076°42'0 0.0
2018-Feb-13 11:30N 34°43' W 076°42'0 0.0
2018-Feb-13 11:00N 34°43' W 076°42'0 0.0
2018-Feb-13 10:30N 34°43' W 076°42'0 0.0
2018-Feb-13 10:00N 34°43' W 076°42'0 0.0
2018-Feb-13 09:30N 34°43' W 076°42'0 0.0
2018-Feb-13 09:00N 34°43' W 076°42'0 0.0
2018-Feb-13 08:30N 34°43' W 076°42'0 0.0
2018-Feb-13 08:00N 34°43' W 076°42'0 0.0
2018-Feb-13 07:30N 34°43' W 076°42'0 0.0
2018-Feb-13 07:00N 34°43' W 076°42'0 0.0
2018-Feb-13 06:30N 34°43' W 076°42'0 0.0
2018-Feb-13 06:00N 34°43' W 076°42'0 0.0
2018-Feb-13 05:30N 34°43' W 076°42'0 0.0
2018-Feb-13 05:00N 34°43' W 076°42'0 0.0
2018-Feb-13 04:30N 34°43' W 076°42'0 0.0
2018-Feb-13 04:00N 34°43' W 076°42'0 0.0
2018-Feb-13 03:30N 34°43' W 076°42'0 0.0
2018-Feb-13 03:00N 34°43' W 076°42'0 0.0
2018-Feb-13 02:30N 34°43' W 076°42'0 0.0
2018-Feb-13 02:00N 34°43' W 076°42'0 0.0
2018-Feb-13 01:30N 34°43' W 076°42'0 0.0
2018-Feb-13 01:00N 34°43' W 076°42'0 0.0
2018-Feb-13 00:30N 34°43' W 076°42'0 0.0
2018-Feb-13 00:00N 34°43' W 076°42'0 1.0
2018-Feb-12 23:30N 34°43' W 076°41'0 0.4
2018-Feb-12 23:00N 34°43' W 076°42'0 0.0
2018-Feb-12 22:30N 34°43' W 076°42'0 0.0
2018-Feb-12 22:00N 34°43' W 076°42'0 0.0
2018-Feb-12 21:30N 34°43' W 076°42'0 0.0
2018-Feb-12 21:00N 34°43' W 076°42'0 0.0
2018-Feb-12 20:30N 34°43' W 076°42'0 0.0
2018-Feb-12 20:00N 34°43' W 076°42'0 0.0
2018-Feb-12 19:30N 34°43' W 076°42'0 0.0
2018-Feb-12 19:00N 34°43' W 076°42'0 0.7
2018-Feb-12 18:30N 34°43' W 076°42'0 0.0
2018-Feb-12 18:00N 34°43' W 076°42'0 0.0
2018-Feb-12 17:29N 34°43' W 076°42'0 0.0
2018-Feb-12 17:00N 34°43' W 076°42'0 0.0
2018-Feb-12 16:30N 34°43' W 076°42'0 0.0
2018-Feb-12 16:00N 34°43' W 076°42'0 0.0
2018-Feb-12 15:30N 34°43' W 076°42'0 0.0
2018-Feb-12 15:00N 34°43' W 076°42'0 0.0
2018-Feb-12 14:30N 34°43' W 076°42'0 0.0
2018-Feb-12 14:00N 34°43' W 076°42'0 0.0
2018-Feb-12 13:30N 34°43' W 076°42'0 0.0
2018-Feb-12 13:00N 34°43' W 076°42'0 0.0
2018-Feb-12 12:30N 34°43' W 076°42'0 0.0
2018-Feb-12 12:00N 34°43' W 076°42'0 0.0
2018-Feb-12 11:30N 34°43' W 076°42'0 0.0
2018-Feb-12 11:00N 34°43' W 076°42'0 0.0
2018-Feb-12 10:30N 34°43' W 076°42'0 0.0
2018-Feb-12 10:00N 34°43' W 076°42'0 0.0
2018-Feb-12 09:30N 34°43' W 076°42'0 0.0
2018-Feb-12 09:00N 34°43' W 076°42'0 0.0
2018-Feb-12 08:30N 34°43' W 076°42'0 0.0
2018-Feb-12 08:00N 34°43' W 076°42'0 0.0
2018-Feb-12 07:30N 34°43' W 076°42'0 0.0
2018-Feb-12 07:00N 34°43' W 076°42'0 0.0
2018-Feb-12 06:30N 34°43' W 076°42'0 0.0
2018-Feb-12 06:00N 34°43' W 076°42'0 0.0
2018-Feb-12 05:30N 34°43' W 076°42'0 0.0
2018-Feb-12 05:00N 34°43' W 076°42'0 0.0
2018-Feb-12 04:30N 34°43' W 076°42'0 0.0
2018-Feb-12 04:00N 34°43' W 076°42'0 0.0
2018-Feb-12 03:30N 34°43' W 076°42'0 0.0
2018-Feb-12 03:00N 34°43' W 076°42'0 0.0
2018-Feb-12 02:30N 34°43' W 076°42'0 0.0
2018-Feb-12 02:00N 34°43' W 076°42'0 0.0
2018-Feb-12 01:30N 34°43' W 076°42'0 0.0
2018-Feb-12 01:00N 34°43' W 076°42'0 0.0
2018-Feb-12 00:30N 34°43' W 076°42'0 0.0
2018-Feb-12 00:00N 34°43' W 076°42'0 0.0
2018-Feb-11 23:30N 34°43' W 076°42'0 0.0
2018-Feb-11 23:00N 34°43' W 076°42'0 0.0
2018-Feb-11 22:30N 34°43' W 076°42'0 0.0
2018-Feb-11 22:00N 34°43' W 076°42'0 0.0
2018-Feb-11 21:30N 34°43' W 076°42'0 0.0
2018-Feb-11 21:00N 34°43' W 076°42'0 0.0
2018-Feb-11 20:30N 34°43' W 076°42'0 0.0
2018-Feb-11 20:00N 34°43' W 076°42'0 0.0
2018-Feb-11 19:30N 34°43' W 076°42'0 0.0
2018-Feb-11 19:00N 34°43' W 076°42'0 0.0
2018-Feb-11 18:30N 34°43' W 076°42'0 0.0
2018-Feb-11 18:00N 34°43' W 076°42'0 0.8
2018-Feb-11 17:30N 34°43' W 076°42'0 0.2
2018-Feb-11 17:00N 34°43' W 076°42'0 0.8
2018-Feb-11 16:30N 34°43' W 076°42'0 0.0
2018-Feb-11 16:00N 34°43' W 076°42'0 0.0
2018-Feb-11 15:30N 34°43' W 076°42'0 0.0
2018-Feb-11 14:59N 34°43' W 076°42'0 0.0
2018-Feb-11 14:30N 34°43' W 076°42'0 0.0
2018-Feb-11 14:00N 34°43' W 076°42'0 0.0
2018-Feb-11 13:30N 34°43' W 076°42'0 0.9
2018-Feb-11 13:00N 34°43' W 076°42'3 6.4
2018-Feb-11 12:30N 34°46' W 076°41'3 5.8
2018-Feb-11 12:00N 34°49' W 076°41'3 5.3
2018-Feb-11 11:30N 34°52' W 076°41'2 4.8
2018-Feb-11 11:00N 34°54' W 076°41'3 5.2
2018-Feb-11 10:30N 34°56' W 076°39'3 5.7
2018-Feb-11 10:00N 34°59' W 076°41'  
2018-Feb-08 21:30N 34°51' W 076°41'5 5.3
2018-Feb-08 20:30N 34°46' W 076°41'2 4.6
2018-Feb-08 20:00N 34°44' W 076°42'1 1.8
2018-Feb-08 19:30N 34°43' W 076°42'0 0.2
2018-Feb-08 19:00N 34°43' W 076°42'0 0.0
2018-Feb-08 17:30N 34°43' W 076°42'1 1.1
2018-Feb-08 17:00N 34°43' W 076°42'0 0.1
2018-Feb-08 16:30N 34°43' W 076°42'0 0.6
2018-Feb-08 16:00N 34°43' W 076°42'0 0.0
2018-Feb-08 15:00N 34°43' W 076°42'0 0.0
2018-Feb-08 14:30N 34°43' W 076°42'0 0.0
2018-Feb-08 14:00N 34°43' W 076°42'0 0.0
2018-Feb-08 13:30N 34°43' W 076°42'1 1.1
2018-Feb-08 13:00N 34°44' W 076°42'2 4.8
2018-Feb-08 12:30N 34°46' W 076°41'3 6.3
2018-Feb-08 12:00N 34°49' W 076°41'3 6.8
2018-Feb-08 11:30N 34°52' W 076°41'5 5.0
2018-Feb-08 10:30N 34°57' W 076°40'  

Dump ship's entire track history